Terminal Aerodrome Forecast
Issued by NWS

Home | Current Version | Previous Version | Text Only | Print | Product List | Glossary On
Versions: 1 2 3 4 5 6 7 8 9 10 11 12 13 14 15 16 17 18 19 20 21 22 23 24 25 26 27 28 29
000
FTUS41 KOKX 170842 AAA
TAFHPN
TAF AMD
KHPN 170842Z 1709/1806 05004KT 2SM -SNRA BKN005 OVC008
     FM171100 36006KT 3/4SM -SN BR VV004
     FM171600 32009KT 5SM BR BKN015 BKN025 BKN120
     FM171800 31009KT P6SM SCT025 BKN120
     FM172000 31011G18KT P6SM SCT030 BKN150
     FM180000 31011KT P6SM SKC
     FM180500 30007KT P6SM SKC
      AMD NOT SKED=

USA.gov is the U.S. government's official web portal to all federal, state and local government web resources and services.